sensor_id;sensor_type;location;lat;lon;timestamp;P1;durP1;ratioP1;P2;durP2;ratioP2
23634;SDS011;11994;51.038;16.974;2022-11-09T00:00:49;23.47;;;18.17;;
23634;SDS011;11994;51.038;16.974;2022-11-09T00:03:15;25.62;;;17.70;;
23634;SDS011;11994;51.038;16.974;2022-11-09T00:05:41;23.60;;;18.90;;
23634;SDS011;11994;51.038;16.974;2022-11-09T00:08:07;23.67;;;17.37;;
23634;SDS011;11994;51.038;16.974;2022-11-09T00:10:35;22.20;;;16.67;;
23634;SDS011;11994;51.038;16.974;2022-11-09T00:13:02;24.20;;;17.20;;
23634;SDS011;11994;51.038;16.974;2022-11-09T00:15:28;22.27;;;17.82;;
23634;SDS011;11994;51.038;16.974;2022-11-09T00:17:54;26.82;;;18.60;;
23634;SDS011;11994;51.038;16.974;2022-11-09T00:20:20;24.47;;;18.98;;
23634;SDS011;11994;51.038;16.974;2022-11-09T00:22:46;24.67;;;19.17;;
23634;SDS011;11994;51.038;16.974;2022-11-09T00:25:13;25.72;;;19.90;;
23634;SDS011;11994;51.038;16.974;2022-11-09T00:27:40;24.35;;;18.40;;
23634;SDS011;11994;51.038;16.974;2022-11-09T00:30:06;28.92;;;17.25;;
23634;SDS011;11994;51.038;16.974;2022-11-09T00:32:34;23.60;;;18.27;;
23634;SDS011;11994;51.038;16.974;2022-11-09T00:35:00;24.87;;;19.25;;
23634;SDS011;11994;51.038;16.974;2022-11-09T00:37:28;26.23;;;19.10;;
23634;SDS011;11994;51.038;16.974;2022-11-09T00:39:54;26.50;;;19.15;;
23634;SDS011;11994;51.038;16.974;2022-11-09T00:42:20;24.15;;;19.82;;
23634;SDS011;11994;51.038;16.974;2022-11-09T00:44:46;22.52;;;18.05;;
23634;SDS011;11994;51.038;16.974;2022-11-09T00:47:12;25.80;;;18.12;;
23634;SDS011;11994;51.038;16.974;2022-11-09T00:49:38;24.35;;;17.98;;
23634;SDS011;11994;51.038;16.974;2022-11-09T00:52:04;22.67;;;18.80;;
23634;SDS011;11994;51.038;16.974;2022-11-09T00:54:30;23.73;;;19.27;;
23634;SDS011;11994;51.038;16.974;2022-11-09T00:56:56;27.20;;;20.30;;
23634;SDS011;11994;51.038;16.974;2022-11-09T00:59:21;27.73;;;20.85;;
23634;SDS011;11994;51.038;16.974;2022-11-09T01:01:47;27.67;;;21.62;;
23634;SDS011;11994;51.038;16.974;2022-11-09T01:04:13;24.80;;;19.15;;
23634;SDS011;11994;51.038;16.974;2022-11-09T01:06:39;27.93;;;18.80;;
23634;SDS011;11994;51.038;16.974;2022-11-09T01:09:05;26.25;;;19.20;;
23634;SDS011;11994;51.038;16.974;2022-11-09T01:11:31;25.72;;;19.62;;
23634;SDS011;11994;51.038;16.974;2022-11-09T01:13:59;30.72;;;20.37;;
23634;SDS011;11994;51.038;16.974;2022-11-09T01:16:25;29.67;;;21.68;;
23634;SDS011;11994;51.038;16.974;2022-11-09T01:18:52;28.38;;;22.13;;
23634;SDS011;11994;51.038;16.974;2022-11-09T01:21:19;28.75;;;20.88;;
23634;SDS011;11994;51.038;16.974;2022-11-09T01:23:46;25.32;;;20.32;;
23634;SDS011;11994;51.038;16.974;2022-11-09T01:26:13;24.65;;;18.60;;
23634;SDS011;11994;51.038;16.974;2022-11-09T01:28:40;26.50;;;18.87;;
23634;SDS011;11994;51.038;16.974;2022-11-09T01:31:14;25.02;;;20.05;;
23634;SDS011;11994;51.038;16.974;2022-11-09T01:33:42;27.02;;;21.20;;
23634;SDS011;11994;51.038;16.974;2022-11-09T01:36:10;26.52;;;20.92;;
23634;SDS011;11994;51.038;16.974;2022-11-09T01:38:40;27.62;;;21.12;;
23634;SDS011;11994;51.038;16.974;2022-11-09T01:41:07;30.52;;;22.95;;
23634;SDS011;11994;51.038;16.974;2022-11-09T01:43:39;28.27;;;20.95;;
23634;SDS011;11994;51.038;16.974;2022-11-09T01:51:24;26.57;;;21.33;;
23634;SDS011;11994;51.038;16.974;2022-11-09T01:54:18;30.50;;;22.10;;
23634;SDS011;11994;51.038;16.974;2022-11-09T01:56:43;30.45;;;22.30;;
23634;SDS011;11994;51.038;16.974;2022-11-09T01:59:16;28.40;;;22.75;;
23634;SDS011;11994;51.038;16.974;2022-11-09T02:01:49;30.57;;;21.87;;
23634;SDS011;11994;51.038;16.974;2022-11-09T02:04:21;25.62;;;20.75;;
23634;SDS011;11994;51.038;16.974;2022-11-09T02:06:51;27.98;;;22.32;;
23634;SDS011;11994;51.038;16.974;2022-11-09T02:09:22;27.95;;;22.00;;
23634;SDS011;11994;51.038;16.974;2022-11-09T02:12:08;31.45;;;24.23;;
23634;SDS011;11994;51.038;16.974;2022-11-09T02:14:34;34.25;;;24.45;;
23634;SDS011;11994;51.038;16.974;2022-11-09T02:17:02;30.82;;;24.70;;
23634;SDS011;11994;51.038;16.974;2022-11-09T02:19:29;31.80;;;23.75;;
23634;SDS011;11994;51.038;16.974;2022-11-09T02:21:55;30.00;;;22.77;;
23634;SDS011;11994;51.038;16.974;2022-11-09T02:24:22;27.73;;;21.90;;
23634;SDS011;11994;51.038;16.974;2022-11-09T02:26:48;29.75;;;23.70;;
23634;SDS011;11994;51.038;16.974;2022-11-09T02:29:17;30.30;;;23.85;;
23634;SDS011;11994;51.038;16.974;2022-11-09T02:32:04;30.30;;;24.65;;
23634;SDS011;11994;51.038;16.974;2022-11-09T02:34:39;33.08;;;24.98;;
23634;SDS011;11994;51.038;16.974;2022-11-09T02:37:06;32.13;;;25.20;;
23634;SDS011;11994;51.038;16.974;2022-11-09T02:39:32;33.60;;;24.07;;
23634;SDS011;11994;51.038;16.974;2022-11-09T02:42:00;30.82;;;22.45;;
23634;SDS011;11994;51.038;16.974;2022-11-09T02:44:31;29.50;;;22.35;;
23634;SDS011;11994;51.038;16.974;2022-11-09T02:47:06;29.20;;;23.52;;
23634;SDS011;11994;51.038;16.974;2022-11-09T02:49:32;31.40;;;24.40;;
23634;SDS011;11994;51.038;16.974;2022-11-09T02:51:58;30.75;;;23.70;;
23634;SDS011;11994;51.038;16.974;2022-11-09T02:54:24;32.83;;;24.95;;
23634;SDS011;11994;51.038;16.974;2022-11-09T02:56:49;31.27;;;23.85;;
23634;SDS011;11994;51.038;16.974;2022-11-09T02:59:15;29.95;;;23.35;;
23634;SDS011;11994;51.038;16.974;2022-11-09T03:01:41;32.50;;;22.75;;
23634;SDS011;11994;51.038;16.974;2022-11-09T03:04:07;29.42;;;22.95;;
23634;SDS011;11994;51.038;16.974;2022-11-09T03:06:33;29.27;;;23.40;;
23634;SDS011;11994;51.038;16.974;2022-11-09T03:09:03;28.73;;;22.30;;
23634;SDS011;11994;51.038;16.974;2022-11-09T03:11:30;32.67;;;24.35;;
23634;SDS011;11994;51.038;16.974;2022-11-09T03:13:56;28.75;;;23.40;;
23634;SDS011;11994;51.038;16.974;2022-11-09T03:16:22;30.35;;;23.85;;
23634;SDS011;11994;51.038;16.974;2022-11-09T03:18:49;29.95;;;22.67;;
23634;SDS011;11994;51.038;16.974;2022-11-09T03:21:16;27.17;;;21.45;;
23634;SDS011;11994;51.038;16.974;2022-11-09T03:23:42;28.98;;;22.45;;
23634;SDS011;11994;51.038;16.974;2022-11-09T03:26:08;30.65;;;23.87;;
23634;SDS011;11994;51.038;16.974;2022-11-09T03:28:34;59.90;;;41.60;;
23634;SDS011;11994;51.038;16.974;2022-11-09T03:31:00;91.00;;;60.98;;
23634;SDS011;11994;51.038;16.974;2022-11-09T03:33:26;65.67;;;46.95;;
23634;SDS011;11994;51.038;16.974;2022-11-09T03:35:52;75.95;;;53.35;;
23634;SDS011;11994;51.038;16.974;2022-11-09T03:38:17;75.78;;;53.08;;
23634;SDS011;11994;51.038;16.974;2022-11-09T03:40:44;69.12;;;49.13;;
23634;SDS011;11994;51.038;16.974;2022-11-09T03:43:09;58.68;;;41.73;;
23634;SDS011;11994;51.038;16.974;2022-11-09T03:45:35;52.48;;;37.45;;
23634;SDS011;11994;51.038;16.974;2022-11-09T03:48:01;59.65;;;40.90;;
23634;SDS011;11994;51.038;16.974;2022-11-09T03:50:29;55.83;;;39.67;;
23634;SDS011;11994;51.038;16.974;2022-11-09T03:52:58;70.03;;;42.80;;
23634;SDS011;11994;51.038;16.974;2022-11-09T03:55:26;63.25;;;40.40;;
23634;SDS011;11994;51.038;16.974;2022-11-09T03:57:53;63.83;;;41.65;;
23634;SDS011;11994;51.038;16.974;2022-11-09T04:00:19;55.28;;;33.10;;
23634;SDS011;11994;51.038;16.974;2022-11-09T04:02:47;69.95;;;42.50;;
23634;SDS011;11994;51.038;16.974;2022-11-09T04:05:13;59.58;;;37.58;;
23634;SDS011;11994;51.038;16.974;2022-11-09T04:07:39;55.95;;;37.50;;
23634;SDS011;11994;51.038;16.974;2022-11-09T04:10:14;47.98;;;33.25;;
23634;SDS011;11994;51.038;16.974;2022-11-09T04:12:40;50.03;;;34.08;;
23634;SDS011;11994;51.038;16.974;2022-11-09T04:15:06;34.78;;;26.23;;
23634;SDS011;11994;51.038;16.974;2022-11-09T04:17:33;42.75;;;30.82;;
23634;SDS011;11994;51.038;16.974;2022-11-09T04:19:59;31.40;;;24.15;;
23634;SDS011;11994;51.038;16.974;2022-11-09T04:22:26;31.02;;;23.65;;
23634;SDS011;11994;51.038;16.974;2022-11-09T04:24:51;33.90;;;24.30;;
23634;SDS011;11994;51.038;16.974;2022-11-09T04:27:18;31.07;;;24.98;;
23634;SDS011;11994;51.038;16.974;2022-11-09T04:29:44;32.17;;;25.02;;
23634;SDS011;11994;51.038;16.974;2022-11-09T04:32:10;30.90;;;23.27;;
23634;SDS011;11994;51.038;16.974;2022-11-09T04:34:36;30.15;;;21.93;;
23634;SDS011;11994;51.038;16.974;2022-11-09T04:37:02;30.37;;;22.10;;
23634;SDS011;11994;51.038;16.974;2022-11-09T04:39:28;33.13;;;24.13;;
23634;SDS011;11994;51.038;16.974;2022-11-09T04:41:53;31.82;;;24.00;;
23634;SDS011;11994;51.038;16.974;2022-11-09T04:44:19;32.45;;;24.32;;
23634;SDS011;11994;51.038;16.974;2022-11-09T04:46:45;34.75;;;26.17;;
23634;SDS011;11994;51.038;16.974;2022-11-09T04:49:11;36.20;;;24.87;;
23634;SDS011;11994;51.038;16.974;2022-11-09T04:51:37;31.80;;;23.22;;
23634;SDS011;11994;51.038;16.974;2022-11-09T04:54:03;36.38;;;28.45;;
23634;SDS011;11994;51.038;16.974;2022-11-09T04:56:29;31.77;;;25.40;;
23634;SDS011;11994;51.038;16.974;2022-11-09T04:58:54;32.17;;;24.63;;
23634;SDS011;11994;51.038;16.974;2022-11-09T05:01:20;35.05;;;25.05;;
23634;SDS011;11994;51.038;16.974;2022-11-09T05:03:47;34.38;;;25.30;;
23634;SDS011;11994;51.038;16.974;2022-11-09T05:06:13;32.28;;;25.40;;
23634;SDS011;11994;51.038;16.974;2022-11-09T05:08:58;30.37;;;21.93;;
23634;SDS011;11994;51.038;16.974;2022-11-09T05:11:28;30.20;;;20.55;;
23634;SDS011;11994;51.038;16.974;2022-11-09T05:13:55;28.52;;;21.12;;
23634;SDS011;11994;51.038;16.974;2022-11-09T05:16:21;26.37;;;20.15;;
23634;SDS011;11994;51.038;16.974;2022-11-09T05:18:47;26.07;;;20.82;;
23634;SDS011;11994;51.038;16.974;2022-11-09T05:21:14;26.97;;;20.80;;
23634;SDS011;11994;51.038;16.974;2022-11-09T05:23:40;29.10;;;21.33;;
23634;SDS011;11994;51.038;16.974;2022-11-09T05:28:58;27.40;;;20.05;;
23634;SDS011;11994;51.038;16.974;2022-11-09T05:31:27;25.88;;;20.00;;
23634;SDS011;11994;51.038;16.974;2022-11-09T05:33:53;26.27;;;20.20;;
23634;SDS011;11994;51.038;16.974;2022-11-09T05:36:20;27.15;;;21.70;;
23634;SDS011;11994;51.038;16.974;2022-11-09T05:38:46;28.35;;;21.95;;
23634;SDS011;11994;51.038;16.974;2022-11-09T05:41:13;26.73;;;21.27;;
23634;SDS011;11994;51.038;16.974;2022-11-09T05:43:40;29.80;;;21.27;;
23634;SDS011;11994;51.038;16.974;2022-11-09T05:46:06;37.58;;;29.82;;
23634;SDS011;11994;51.038;16.974;2022-11-09T05:48:32;33.60;;;24.47;;
23634;SDS011;11994;51.038;16.974;2022-11-09T05:51:01;32.78;;;24.75;;
23634;SDS011;11994;51.038;16.974;2022-11-09T05:53:29;31.45;;;23.60;;
23634;SDS011;11994;51.038;16.974;2022-11-09T05:55:59;34.63;;;22.80;;
23634;SDS011;11994;51.038;16.974;2022-11-09T05:58:29;31.15;;;23.42;;
23634;SDS011;11994;51.038;16.974;2022-11-09T06:00:58;32.13;;;23.35;;
23634;SDS011;11994;51.038;16.974;2022-11-09T06:03:24;31.93;;;23.27;;
23634;SDS011;11994;51.038;16.974;2022-11-09T06:05:49;38.25;;;25.52;;
23634;SDS011;11994;51.038;16.974;2022-11-09T06:08:15;37.38;;;26.90;;
23634;SDS011;11994;51.038;16.974;2022-11-09T06:10:41;35.15;;;24.45;;
23634;SDS011;11994;51.038;16.974;2022-11-09T06:13:07;34.35;;;26.55;;
23634;SDS011;11994;51.038;16.974;2022-11-09T06:15:34;32.53;;;26.00;;
23634;SDS011;11994;51.038;16.974;2022-11-09T06:18:00;33.63;;;24.55;;
23634;SDS011;11994;51.038;16.974;2022-11-09T06:20:26;35.52;;;25.40;;
23634;SDS011;11994;51.038;16.974;2022-11-09T06:22:56;32.28;;;21.97;;
23634;SDS011;11994;51.038;16.974;2022-11-09T06:25:25;31.50;;;22.02;;
23634;SDS011;11994;51.038;16.974;2022-11-09T06:27:52;30.05;;;22.93;;
23634;SDS011;11994;51.038;16.974;2022-11-09T06:30:20;32.00;;;23.57;;
23634;SDS011;11994;51.038;16.974;2022-11-09T06:32:46;32.95;;;24.27;;
23634;SDS011;11994;51.038;16.974;2022-11-09T06:35:13;31.80;;;24.07;;
23634;SDS011;11994;51.038;16.974;2022-11-09T06:37:39;38.85;;;26.33;;
23634;SDS011;11994;51.038;16.974;2022-11-09T06:40:05;33.55;;;24.50;;
23634;SDS011;11994;51.038;16.974;2022-11-09T06:42:32;32.35;;;23.02;;
23634;SDS011;11994;51.038;16.974;2022-11-09T06:44:58;43.75;;;24.05;;
23634;SDS011;11994;51.038;16.974;2022-11-09T06:47:26;34.78;;;24.87;;
23634;SDS011;11994;51.038;16.974;2022-11-09T06:49:53;35.83;;;26.48;;
23634;SDS011;11994;51.038;16.974;2022-11-09T06:52:19;38.42;;;27.30;;
23634;SDS011;11994;51.038;16.974;2022-11-09T06:54:45;36.03;;;26.33;;
23634;SDS011;11994;51.038;16.974;2022-11-09T06:57:10;40.08;;;28.23;;
23634;SDS011;11994;51.038;16.974;2022-11-09T06:59:36;33.05;;;24.57;;
23634;SDS011;11994;51.038;16.974;2022-11-09T07:02:02;33.90;;;25.23;;
23634;SDS011;11994;51.038;16.974;2022-11-09T07:04:28;34.55;;;24.57;;
23634;SDS011;11994;51.038;16.974;2022-11-09T07:06:53;32.67;;;25.00;;
23634;SDS011;11994;51.038;16.974;2022-11-09T07:09:19;33.60;;;25.15;;
23634;SDS011;11994;51.038;16.974;2022-11-09T07:11:47;35.35;;;25.25;;
23634;SDS011;11994;51.038;16.974;2022-11-09T07:14:13;42.93;;;25.37;;
23634;SDS011;11994;51.038;16.974;2022-11-09T07:16:39;35.08;;;23.40;;
23634;SDS011;11994;51.038;16.974;2022-11-09T07:19:05;30.43;;;22.40;;
23634;SDS011;11994;51.038;16.974;2022-11-09T07:21:30;31.23;;;22.77;;
23634;SDS011;11994;51.038;16.974;2022-11-09T07:23:57;40.33;;;24.75;;
23634;SDS011;11994;51.038;16.974;2022-11-09T07:26:23;37.85;;;25.50;;
23634;SDS011;11994;51.038;16.974;2022-11-09T07:28:49;33.45;;;24.20;;
23634;SDS011;11994;51.038;16.974;2022-11-09T07:31:14;33.95;;;24.18;;
23634;SDS011;11994;51.038;16.974;2022-11-09T07:33:40;35.10;;;23.12;;
23634;SDS011;11994;51.038;16.974;2022-11-09T07:36:06;30.70;;;21.62;;
23634;SDS011;11994;51.038;16.974;2022-11-09T07:38:33;29.07;;;22.10;;
23634;SDS011;11994;51.038;16.974;2022-11-09T07:40:59;31.57;;;22.22;;
23634;SDS011;11994;51.038;16.974;2022-11-09T07:43:26;32.28;;;21.55;;
23634;SDS011;11994;51.038;16.974;2022-11-09T07:45:53;30.60;;;23.27;;
23634;SDS011;11994;51.038;16.974;2022-11-09T07:48:19;32.90;;;25.48;;
23634;SDS011;11994;51.038;16.974;2022-11-09T07:50:46;30.52;;;22.98;;
23634;SDS011;11994;51.038;16.974;2022-11-09T07:53:12;27.35;;;20.80;;
23634;SDS011;11994;51.038;16.974;2022-11-09T07:55:39;28.90;;;21.40;;
23634;SDS011;11994;51.038;16.974;2022-11-09T07:58:11;29.85;;;22.32;;
23634;SDS011;11994;51.038;16.974;2022-11-09T08:00:40;31.37;;;22.75;;
23634;SDS011;11994;51.038;16.974;2022-11-09T08:03:07;31.48;;;22.93;;
23634;SDS011;11994;51.038;16.974;2022-11-09T08:05:33;30.45;;;22.37;;
23634;SDS011;11994;51.038;16.974;2022-11-09T08:08:00;30.48;;;22.55;;
23634;SDS011;11994;51.038;16.974;2022-11-09T08:10:29;33.15;;;22.32;;
23634;SDS011;11994;51.038;16.974;2022-11-09T08:12:57;27.65;;;20.32;;
23634;SDS011;11994;51.038;16.974;2022-11-09T08:15:26;26.75;;;20.72;;
23634;SDS011;11994;51.038;16.974;2022-11-09T08:17:52;28.87;;;21.57;;
23634;SDS011;11994;51.038;16.974;2022-11-09T08:20:18;32.93;;;22.20;;
23634;SDS011;11994;51.038;16.974;2022-11-09T08:22:46;34.43;;;24.20;;
23634;SDS011;11994;51.038;16.974;2022-11-09T08:25:12;34.38;;;24.10;;
23634;SDS011;11994;51.038;16.974;2022-11-09T08:27:39;35.15;;;25.95;;
23634;SDS011;11994;51.038;16.974;2022-11-09T08:30:15;37.45;;;25.27;;
23634;SDS011;11994;51.038;16.974;2022-11-09T08:32:44;34.27;;;23.05;;
23634;SDS011;11994;51.038;16.974;2022-11-09T08:35:12;29.23;;;21.27;;
23634;SDS011;11994;51.038;16.974;2022-11-09T08:37:45;28.65;;;21.73;;
23634;SDS011;11994;51.038;16.974;2022-11-09T08:40:14;27.58;;;21.05;;
23634;SDS011;11994;51.038;16.974;2022-11-09T08:42:42;26.90;;;21.27;;
23634;SDS011;11994;51.038;16.974;2022-11-09T08:45:09;32.53;;;23.87;;
23634;SDS011;11994;51.038;16.974;2022-11-09T08:47:35;30.32;;;22.60;;
23634;SDS011;11994;51.038;16.974;2022-11-09T08:50:03;30.80;;;22.30;;
23634;SDS011;11994;51.038;16.974;2022-11-09T08:52:30;30.30;;;23.00;;
23634;SDS011;11994;51.038;16.974;2022-11-09T08:54:57;29.40;;;21.10;;
23634;SDS011;11994;51.038;16.974;2022-11-09T08:57:23;27.17;;;19.15;;
23634;SDS011;11994;51.038;16.974;2022-11-09T08:59:50;26.40;;;20.00;;
23634;SDS011;11994;51.038;16.974;2022-11-09T09:02:16;24.52;;;19.57;;
23634;SDS011;11994;51.038;16.974;2022-11-09T09:04:42;29.60;;;19.60;;
23634;SDS011;11994;51.038;16.974;2022-11-09T09:07:08;27.52;;;20.25;;
23634;SDS011;11994;51.038;16.974;2022-11-09T09:09:34;25.25;;;20.48;;
23634;SDS011;11994;51.038;16.974;2022-11-09T09:12:02;25.92;;;19.82;;
23634;SDS011;11994;51.038;16.974;2022-11-09T09:14:30;24.43;;;19.60;;
23634;SDS011;11994;51.038;16.974;2022-11-09T09:16:57;21.73;;;17.55;;
23634;SDS011;11994;51.038;16.974;2022-11-09T09:19:23;24.63;;;18.10;;
23634;SDS011;11994;51.038;16.974;2022-11-09T09:21:49;22.95;;;18.42;;
23634;SDS011;11994;51.038;16.974;2022-11-09T09:24:15;24.37;;;18.42;;
23634;SDS011;11994;51.038;16.974;2022-11-09T09:26:40;24.05;;;18.87;;
23634;SDS011;11994;51.038;16.974;2022-11-09T09:29:06;25.45;;;19.00;;
23634;SDS011;11994;51.038;16.974;2022-11-09T09:31:32;24.20;;;19.10;;
23634;SDS011;11994;51.038;16.974;2022-11-09T09:33:58;26.42;;;19.98;;
23634;SDS011;11994;51.038;16.974;2022-11-09T09:36:23;25.72;;;20.23;;
23634;SDS011;11994;51.038;16.974;2022-11-09T09:38:50;24.98;;;19.07;;
23634;SDS011;11994;51.038;16.974;2022-11-09T09:41:37;26.95;;;20.37;;
23634;SDS011;11994;51.038;16.974;2022-11-09T09:44:27;28.12;;;19.82;;
23634;SDS011;11994;51.038;16.974;2022-11-09T09:47:14;23.73;;;19.25;;
23634;SDS011;11994;51.038;16.974;2022-11-09T09:49:58;23.45;;;17.42;;
23634;SDS011;11994;51.038;16.974;2022-11-09T09:57:55;27.30;;;19.42;;
23634;SDS011;11994;51.038;16.974;2022-11-09T10:00:26;26.05;;;19.48;;
23634;SDS011;11994;51.038;16.974;2022-11-09T10:02:52;29.37;;;21.87;;
23634;SDS011;11994;51.038;16.974;2022-11-09T10:05:20;29.55;;;20.80;;
23634;SDS011;11994;51.038;16.974;2022-11-09T10:10:52;28.38;;;21.25;;
23634;SDS011;11994;51.038;16.974;2022-11-09T10:13:24;30.35;;;21.62;;
23634;SDS011;11994;51.038;16.974;2022-11-09T10:16:31;32.17;;;20.95;;
23634;SDS011;11994;51.038;16.974;2022-11-09T10:19:33;28.00;;;19.07;;
23634;SDS011;11994;51.038;16.974;2022-11-09T10:22:04;28.17;;;17.57;;
23634;SDS011;11994;51.038;16.974;2022-11-09T10:27:33;23.62;;;17.75;;
23634;SDS011;11994;51.038;16.974;2022-11-09T10:30:14;23.75;;;18.87;;
23634;SDS011;11994;51.038;16.974;2022-11-09T10:32:50;27.37;;;17.98;;
23634;SDS011;11994;51.038;16.974;2022-11-09T10:35:18;23.73;;;18.55;;
23634;SDS011;11994;51.038;16.974;2022-11-09T10:37:51;26.17;;;18.98;;
23634;SDS011;11994;51.038;16.974;2022-11-09T10:43:00;23.83;;;18.85;;
23634;SDS011;11994;51.038;16.974;2022-11-09T10:45:32;23.95;;;18.40;;
23634;SDS011;11994;51.038;16.974;2022-11-09T10:48:01;27.22;;;18.52;;
23634;SDS011;11994;51.038;16.974;2022-11-09T10:58:48;23.38;;;18.90;;
23634;SDS011;11994;51.038;16.974;2022-11-09T11:01:20;31.02;;;18.87;;
23634;SDS011;11994;51.038;16.974;2022-11-09T11:03:49;23.40;;;17.50;;
23634;SDS011;11994;51.038;16.974;2022-11-09T11:08:53;25.60;;;18.23;;
23634;SDS011;11994;51.038;16.974;2022-11-09T11:11:32;25.77;;;17.73;;
23634;SDS011;11994;51.038;16.974;2022-11-09T11:16:38;26.77;;;18.87;;
23634;SDS011;11994;51.038;16.974;2022-11-09T11:19:24;26.60;;;17.55;;
23634;SDS011;11994;51.038;16.974;2022-11-09T11:22:07;29.50;;;18.80;;
23634;SDS011;11994;51.038;16.974;2022-11-09T11:24:44;23.10;;;18.60;;
23634;SDS011;11994;51.038;16.974;2022-11-09T11:27:26;22.22;;;16.37;;
23634;SDS011;11994;51.038;16.974;2022-11-09T11:32:38;21.80;;;16.50;;
23634;SDS011;11994;51.038;16.974;2022-11-09T11:35:04;22.73;;;17.55;;
23634;SDS011;11994;51.038;16.974;2022-11-09T11:38:09;19.75;;;15.30;;
23634;SDS011;11994;51.038;16.974;2022-11-09T11:53:08;24.75;;;18.48;;
23634;SDS011;11994;51.038;16.974;2022-11-09T12:19:12;25.52;;;18.95;;
23634;SDS011;11994;51.038;16.974;2022-11-09T12:28:13;25.95;;;19.20;;
23634;SDS011;11994;51.038;16.974;2022-11-09T12:30:57;28.83;;;19.90;;
23634;SDS011;11994;51.038;16.974;2022-11-09T12:33:31;25.62;;;18.25;;
23634;SDS011;11994;51.038;16.974;2022-11-09T12:36:00;25.50;;;18.52;;
23634;SDS011;11994;51.038;16.974;2022-11-09T12:38:45;24.23;;;17.70;;
23634;SDS011;11994;51.038;16.974;2022-11-09T12:41:32;37.08;;;18.25;;
23634;SDS011;11994;51.038;16.974;2022-11-09T12:46:45;21.85;;;17.23;;
23634;SDS011;11994;51.038;16.974;2022-11-09T12:49:39;21.95;;;17.12;;
23634;SDS011;11994;51.038;16.974;2022-11-09T12:52:07;21.30;;;16.25;;
23634;SDS011;11994;51.038;16.974;2022-11-09T12:54:40;19.92;;;15.13;;
23634;SDS011;11994;51.038;16.974;2022-11-09T12:57:10;21.07;;;15.08;;
23634;SDS011;11994;51.038;16.974;2022-11-09T12:59:46;23.30;;;15.65;;
23634;SDS011;11994;51.038;16.974;2022-11-09T13:02:19;21.30;;;17.00;;
23634;SDS011;11994;51.038;16.974;2022-11-09T13:05:00;23.80;;;17.57;;
23634;SDS011;11994;51.038;16.974;2022-11-09T13:10:24;26.27;;;18.98;;
23634;SDS011;11994;51.038;16.974;2022-11-09T13:13:00;22.58;;;18.32;;
23634;SDS011;11994;51.038;16.974;2022-11-09T13:23:52;26.68;;;20.32;;
23634;SDS011;11994;51.038;16.974;2022-11-09T13:34:49;29.95;;;20.30;;
23634;SDS011;11994;51.038;16.974;2022-11-09T13:43:20;29.00;;;21.42;;
23634;SDS011;11994;51.038;16.974;2022-11-09T13:48:50;28.38;;;21.45;;
23634;SDS011;11994;51.038;16.974;2022-11-09T13:56:54;31.27;;;21.00;;
23634;SDS011;11994;51.038;16.974;2022-11-09T13:59:31;29.82;;;21.02;;
23634;SDS011;11994;51.038;16.974;2022-11-09T14:02:24;29.67;;;19.00;;
23634;SDS011;11994;51.038;16.974;2022-11-09T14:04:50;29.23;;;19.92;;
23634;SDS011;11994;51.038;16.974;2022-11-09T14:07:21;30.00;;;19.80;;
23634;SDS011;11994;51.038;16.974;2022-11-09T14:10:07;27.80;;;20.08;;
23634;SDS011;11994;51.038;16.974;2022-11-09T14:13:07;27.48;;;21.12;;
23634;SDS011;11994;51.038;16.974;2022-11-09T14:15:57;33.45;;;21.60;;
23634;SDS011;11994;51.038;16.974;2022-11-09T14:26:34;29.18;;;21.20;;
23634;SDS011;11994;51.038;16.974;2022-11-09T14:29:09;29.15;;;21.15;;
23634;SDS011;11994;51.038;16.974;2022-11-09T14:31:45;31.35;;;21.33;;
23634;SDS011;11994;51.038;16.974;2022-11-09T14:34:12;31.60;;;21.93;;
23634;SDS011;11994;51.038;16.974;2022-11-09T14:36:40;31.90;;;22.60;;
23634;SDS011;11994;51.038;16.974;2022-11-09T14:39:16;33.23;;;23.10;;
23634;SDS011;11994;51.038;16.974;2022-11-09T14:41:53;33.00;;;22.87;;
23634;SDS011;11994;51.038;16.974;2022-11-09T14:44:24;33.05;;;22.60;;
23634;SDS011;11994;51.038;16.974;2022-11-09T14:47:00;30.10;;;23.30;;
23634;SDS011;11994;51.038;16.974;2022-11-09T14:49:27;33.73;;;23.40;;
23634;SDS011;11994;51.038;16.974;2022-11-09T14:51:54;33.50;;;25.10;;
23634;SDS011;11994;51.038;16.974;2022-11-09T14:54:22;31.97;;;23.95;;
23634;SDS011;11994;51.038;16.974;2022-11-09T14:56:49;34.67;;;26.07;;
23634;SDS011;11994;51.038;16.974;2022-11-09T14:59:25;35.25;;;25.27;;
23634;SDS011;11994;51.038;16.974;2022-11-09T15:02:02;33.67;;;26.00;;
23634;SDS011;11994;51.038;16.974;2022-11-09T15:04:36;33.73;;;24.25;;
23634;SDS011;11994;51.038;16.974;2022-11-09T15:07:19;32.13;;;23.27;;
23634;SDS011;11994;51.038;16.974;2022-11-09T15:09:54;33.95;;;24.40;;
23634;SDS011;11994;51.038;16.974;2022-11-09T15:12:22;33.35;;;24.55;;
23634;SDS011;11994;51.038;16.974;2022-11-09T15:14:49;33.60;;;25.23;;
23634;SDS011;11994;51.038;16.974;2022-11-09T15:28:00;38.65;;;26.60;;
23634;SDS011;11994;51.038;16.974;2022-11-09T15:30:31;34.23;;;23.52;;
23634;SDS011;11994;51.038;16.974;2022-11-09T15:38:30;33.00;;;24.27;;
23634;SDS011;11994;51.038;16.974;2022-11-09T15:41:02;36.95;;;27.15;;
23634;SDS011;11994;51.038;16.974;2022-11-09T15:43:41;35.35;;;25.92;;
23634;SDS011;11994;51.038;16.974;2022-11-09T15:46:14;39.10;;;26.85;;
23634;SDS011;11994;51.038;16.974;2022-11-09T15:48:50;39.10;;;27.30;;
23634;SDS011;11994;51.038;16.974;2022-11-09T15:51:16;37.40;;;26.50;;
23634;SDS011;11994;51.038;16.974;2022-11-09T15:53:43;37.55;;;25.85;;
23634;SDS011;11994;51.038;16.974;2022-11-09T15:56:12;32.50;;;24.02;;
23634;SDS011;11994;51.038;16.974;2022-11-09T15:58:43;35.90;;;26.73;;
23634;SDS011;11994;51.038;16.974;2022-11-09T16:01:12;38.92;;;28.02;;
23634;SDS011;11994;51.038;16.974;2022-11-09T16:03:38;36.40;;;27.98;;
23634;SDS011;11994;51.038;16.974;2022-11-09T16:06:04;38.92;;;27.32;;
23634;SDS011;11994;51.038;16.974;2022-11-09T16:08:32;40.43;;;28.65;;
23634;SDS011;11994;51.038;16.974;2022-11-09T16:11:01;40.20;;;28.47;;
23634;SDS011;11994;51.038;16.974;2022-11-09T16:13:29;43.73;;;29.95;;
23634;SDS011;11994;51.038;16.974;2022-11-09T16:16:02;41.85;;;27.73;;
23634;SDS011;11994;51.038;16.974;2022-11-09T16:18:31;40.63;;;25.65;;
23634;SDS011;11994;51.038;16.974;2022-11-09T16:21:05;38.78;;;28.47;;
23634;SDS011;11994;51.038;16.974;2022-11-09T16:23:37;40.85;;;28.50;;
23634;SDS011;11994;51.038;16.974;2022-11-09T16:26:04;40.90;;;29.65;;
23634;SDS011;11994;51.038;16.974;2022-11-09T16:28:39;48.10;;;29.80;;
23634;SDS011;11994;51.038;16.974;2022-11-09T16:31:07;46.60;;;29.80;;
23634;SDS011;11994;51.038;16.974;2022-11-09T16:33:34;38.67;;;28.67;;
23634;SDS011;11994;51.038;16.974;2022-11-09T16:36:08;42.15;;;29.77;;
23634;SDS011;11994;51.038;16.974;2022-11-09T16:38:37;50.20;;;29.25;;
23634;SDS011;11994;51.038;16.974;2022-11-09T16:41:05;45.43;;;27.67;;
23634;SDS011;11994;51.038;16.974;2022-11-09T16:43:31;45.30;;;28.85;;